sensor_id;sensor_type;location;lat;lon;timestamp;temperature;humidity
15983;DHT22;14442;50.196;8.096;2023-09-19T00:00:07;21.60;73.60
15983;DHT22;14442;50.196;8.096;2023-09-19T00:02:35;21.60;73.60
15983;DHT22;14442;50.196;8.096;2023-09-19T00:05:05;21.60;73.50
15983;DHT22;14442;50.196;8.096;2023-09-19T00:07:31;21.60;73.50
15983;DHT22;14442;50.196;8.096;2023-09-19T00:09:58;21.60;73.50
15983;DHT22;14442;50.196;8.096;2023-09-19T00:12:25;21.60;73.60
15983;DHT22;14442;50.196;8.096;2023-09-19T00:14:53;21.60;73.50
15983;DHT22;14442;50.196;8.096;2023-09-19T00:17:21;21.60;73.50
15983;DHT22;14442;50.196;8.096;2023-09-19T00:19:47;21.60;73.50
15983;DHT22;14442;50.196;8.096;2023-09-19T00:22:18;21.60;73.50
15983;DHT22;14442;50.196;8.096;2023-09-19T00:24:45;21.60;73.50
15983;DHT22;14442;50.196;8.096;2023-09-19T00:27:12;21.60;73.60
15983;DHT22;14442;50.196;8.096;2023-09-19T00:29:38;21.60;73.50
15983;DHT22;14442;50.196;8.096;2023-09-19T00:32:07;21.60;73.50
15983;DHT22;14442;50.196;8.096;2023-09-19T00:34:35;21.60;73.50
15983;DHT22;14442;50.196;8.096;2023-09-19T00:37:02;21.60;73.50
15983;DHT22;14442;50.196;8.096;2023-09-19T00:39:29;21.60;73.50
15983;DHT22;14442;50.196;8.096;2023-09-19T00:41:56;21.60;73.50
15983;DHT22;14442;50.196;8.096;2023-09-19T00:44:23;21.60;73.50
15983;DHT22;14442;50.196;8.096;2023-09-19T00:46:50;21.60;73.50
15983;DHT22;14442;50.196;8.096;2023-09-19T00:49:17;21.60;73.50
15983;DHT22;14442;50.196;8.096;2023-09-19T00:51:47;21.60;73.60
15983;DHT22;14442;50.196;8.096;2023-09-19T00:54:15;21.60;73.60
15983;DHT22;14442;50.196;8.096;2023-09-19T00:56:44;21.60;73.60
15983;DHT22;14442;50.196;8.096;2023-09-19T00:59:11;21.60;73.60
15983;DHT22;14442;50.196;8.096;2023-09-19T01:01:39;21.60;73.60
15983;DHT22;14442;50.196;8.096;2023-09-19T01:04:06;21.50;73.60
15983;DHT22;14442;50.196;8.096;2023-09-19T01:06:33;21.60;73.70
15983;DHT22;14442;50.196;8.096;2023-09-19T01:09:01;21.50;73.60
15983;DHT22;14442;50.196;8.096;2023-09-19T01:11:33;21.50;73.60
15983;DHT22;14442;50.196;8.096;2023-09-19T01:14:12;21.50;73.50
15983;DHT22;14442;50.196;8.096;2023-09-19T01:16:47;21.50;73.60
15983;DHT22;14442;50.196;8.096;2023-09-19T01:22:24;21.50;73.60
15983;DHT22;14442;50.196;8.096;2023-09-19T01:25:13;21.50;74.20
15983;DHT22;14442;50.196;8.096;2023-09-19T01:28:00;21.50;73.60
15983;DHT22;14442;50.196;8.096;2023-09-19T01:30:35;21.50;73.60
15983;DHT22;14442;50.196;8.096;2023-09-19T01:33:06;21.50;73.60
15983;DHT22;14442;50.196;8.096;2023-09-19T01:35:33;21.50;73.60
15983;DHT22;14442;50.196;8.096;2023-09-19T01:38:04;21.50;73.60
15983;DHT22;14442;50.196;8.096;2023-09-19T01:40:33;21.50;73.50
15983;DHT22;14442;50.196;8.096;2023-09-19T01:43:09;21.50;73.60
15983;DHT22;14442;50.196;8.096;2023-09-19T01:45:46;21.50;73.50
15983;DHT22;14442;50.196;8.096;2023-09-19T01:48:21;21.50;73.60
15983;DHT22;14442;50.196;8.096;2023-09-19T01:50:59;21.50;73.50
15983;DHT22;14442;50.196;8.096;2023-09-19T01:53:28;21.50;73.60
15983;DHT22;14442;50.196;8.096;2023-09-19T01:55:57;21.50;73.50
15983;DHT22;14442;50.196;8.096;2023-09-19T01:58:31;21.50;73.60
15983;DHT22;14442;50.196;8.096;2023-09-19T02:01:01;21.40;73.40
15983;DHT22;14442;50.196;8.096;2023-09-19T02:03:31;21.50;73.60
15983;DHT22;14442;50.196;8.096;2023-09-19T02:05:58;21.40;73.50
15983;DHT22;14442;50.196;8.096;2023-09-19T02:08:26;21.40;73.40
15983;DHT22;14442;50.196;8.096;2023-09-19T02:10:53;21.40;73.40
15983;DHT22;14442;50.196;8.096;2023-09-19T02:13:20;21.40;73.40
15983;DHT22;14442;50.196;8.096;2023-09-19T02:15:47;21.40;73.50
15983;DHT22;14442;50.196;8.096;2023-09-19T02:18:16;21.40;73.50
15983;DHT22;14442;50.196;8.096;2023-09-19T02:20:43;21.40;73.40
15983;DHT22;14442;50.196;8.096;2023-09-19T02:23:11;21.40;73.40
15983;DHT22;14442;50.196;8.096;2023-09-19T02:25:38;21.40;73.40
15983;DHT22;14442;50.196;8.096;2023-09-19T02:28:05;21.40;73.40
15983;DHT22;14442;50.196;8.096;2023-09-19T02:30:33;21.40;73.40
15983;DHT22;14442;50.196;8.096;2023-09-19T02:33:01;21.40;73.40
15983;DHT22;14442;50.196;8.096;2023-09-19T02:35:29;21.40;73.40
15983;DHT22;14442;50.196;8.096;2023-09-19T02:38:00;21.40;74.10
15983;DHT22;14442;50.196;8.096;2023-09-19T02:40:27;21.40;73.30
15983;DHT22;14442;50.196;8.096;2023-09-19T02:42:55;21.40;73.30
15983;DHT22;14442;50.196;8.096;2023-09-19T02:45:24;21.40;73.30
15983;DHT22;14442;50.196;8.096;2023-09-19T02:47:51;21.40;73.30
15983;DHT22;14442;50.196;8.096;2023-09-19T02:50:18;21.40;73.30
15983;DHT22;14442;50.196;8.096;2023-09-19T02:52:47;21.40;73.30
15983;DHT22;14442;50.196;8.096;2023-09-19T02:55:14;21.40;73.30
15983;DHT22;14442;50.196;8.096;2023-09-19T02:57:45;21.40;73.30
15983;DHT22;14442;50.196;8.096;2023-09-19T03:00:13;21.30;73.20
15983;DHT22;14442;50.196;8.096;2023-09-19T03:02:40;21.30;73.10
15983;DHT22;14442;50.196;8.096;2023-09-19T03:05:09;21.40;73.30
15983;DHT22;14442;50.196;8.096;2023-09-19T03:07:37;21.40;73.20
15983;DHT22;14442;50.196;8.096;2023-09-19T03:10:07;21.40;73.20
15983;DHT22;14442;50.196;8.096;2023-09-19T03:12:34;21.40;73.30
15983;DHT22;14442;50.196;8.096;2023-09-19T03:15:00;21.40;73.20
15983;DHT22;14442;50.196;8.096;2023-09-19T03:17:27;21.30;73.10
15983;DHT22;14442;50.196;8.096;2023-09-19T03:19:54;21.30;73.10
15983;DHT22;14442;50.196;8.096;2023-09-19T03:22:22;21.30;73.10
15983;DHT22;14442;50.196;8.096;2023-09-19T03:24:50;21.30;73.10
15983;DHT22;14442;50.196;8.096;2023-09-19T03:27:19;21.30;73.10
15983;DHT22;14442;50.196;8.096;2023-09-19T03:29:46;21.30;73.00
15983;DHT22;14442;50.196;8.096;2023-09-19T03:32:13;21.30;73.00
15983;DHT22;14442;50.196;8.096;2023-09-19T03:34:40;21.30;73.00
15983;DHT22;14442;50.196;8.096;2023-09-19T03:37:08;21.30;73.00
15983;DHT22;14442;50.196;8.096;2023-09-19T03:39:36;21.30;73.00
15983;DHT22;14442;50.196;8.096;2023-09-19T03:42:03;21.30;72.30
15983;DHT22;14442;50.196;8.096;2023-09-19T03:44:33;21.30;71.80
15983;DHT22;14442;50.196;8.096;2023-09-19T03:47:00;21.30;71.30
15983;DHT22;14442;50.196;8.096;2023-09-19T03:49:27;21.30;71.00
15983;DHT22;14442;50.196;8.096;2023-09-19T03:51:54;21.30;70.60
15983;DHT22;14442;50.196;8.096;2023-09-19T03:54:20;21.30;70.40
15983;DHT22;14442;50.196;8.096;2023-09-19T03:56:47;21.30;70.40
15983;DHT22;14442;50.196;8.096;2023-09-19T03:59:14;21.30;70.40
15983;DHT22;14442;50.196;8.096;2023-09-19T04:01:42;21.30;70.30
15983;DHT22;14442;50.196;8.096;2023-09-19T04:04:09;21.20;70.40
15983;DHT22;14442;50.196;8.096;2023-09-19T04:06:37;21.20;70.50
15983;DHT22;14442;50.196;8.096;2023-09-19T04:09:04;21.20;70.70
15983;DHT22;14442;50.196;8.096;2023-09-19T04:11:32;21.20;70.90
15983;DHT22;14442;50.196;8.096;2023-09-19T04:13:59;21.20;71.00
15983;DHT22;14442;50.196;8.096;2023-09-19T04:16:26;21.30;71.10
15983;DHT22;14442;50.196;8.096;2023-09-19T04:18:54;21.20;71.00
15983;DHT22;14442;50.196;8.096;2023-09-19T04:21:20;21.20;71.00
15983;DHT22;14442;50.196;8.096;2023-09-19T04:23:47;21.20;71.10
15983;DHT22;14442;50.196;8.096;2023-09-19T04:26:14;21.20;71.10
15983;DHT22;14442;50.196;8.096;2023-09-19T04:28:42;21.20;71.10
15983;DHT22;14442;50.196;8.096;2023-09-19T04:31:09;21.20;71.20
15983;DHT22;14442;50.196;8.096;2023-09-19T04:33:37;21.20;71.20
15983;DHT22;14442;50.196;8.096;2023-09-19T04:36:05;21.20;71.30
15983;DHT22;14442;50.196;8.096;2023-09-19T04:38:33;21.20;71.30
15983;DHT22;14442;50.196;8.096;2023-09-19T04:41:00;21.20;72.00
15983;DHT22;14442;50.196;8.096;2023-09-19T04:43:26;21.20;71.30
15983;DHT22;14442;50.196;8.096;2023-09-19T04:45:54;21.20;71.40
15983;DHT22;14442;50.196;8.096;2023-09-19T04:48:21;21.20;71.40
15983;DHT22;14442;50.196;8.096;2023-09-19T04:50:49;21.20;71.40
15983;DHT22;14442;50.196;8.096;2023-09-19T04:53:17;21.20;71.50
15983;DHT22;14442;50.196;8.096;2023-09-19T04:55:50;21.20;71.50
15983;DHT22;14442;50.196;8.096;2023-09-19T04:58:17;21.20;71.50
15983;DHT22;14442;50.196;8.096;2023-09-19T05:00:44;21.20;71.50
15983;DHT22;14442;50.196;8.096;2023-09-19T05:03:11;21.20;71.60
15983;DHT22;14442;50.196;8.096;2023-09-19T05:05:38;21.20;71.60
15983;DHT22;14442;50.196;8.096;2023-09-19T05:08:06;21.20;71.60
15983;DHT22;14442;50.196;8.096;2023-09-19T05:10:36;21.20;72.30
15983;DHT22;14442;50.196;8.096;2023-09-19T05:13:03;21.20;71.70
15983;DHT22;14442;50.196;8.096;2023-09-19T05:15:30;21.20;71.70
15983;DHT22;14442;50.196;8.096;2023-09-19T05:17:57;21.20;71.80
15983;DHT22;14442;50.196;8.096;2023-09-19T05:20:24;21.20;71.80
15983;DHT22;14442;50.196;8.096;2023-09-19T05:22:58;21.20;71.80
15983;DHT22;14442;50.196;8.096;2023-09-19T05:25:25;21.20;71.80
15983;DHT22;14442;50.196;8.096;2023-09-19T05:27:56;21.20;71.80
15983;DHT22;14442;50.196;8.096;2023-09-19T05:30:24;21.20;71.80
15983;DHT22;14442;50.196;8.096;2023-09-19T05:32:52;21.20;71.80
15983;DHT22;14442;50.196;8.096;2023-09-19T05:35:19;21.20;71.80
15983;DHT22;14442;50.196;8.096;2023-09-19T05:37:47;21.20;72.20
15983;DHT22;14442;50.196;8.096;2023-09-19T05:40:16;21.10;71.70
15983;DHT22;14442;50.196;8.096;2023-09-19T05:42:43;21.20;71.90
15983;DHT22;14442;50.196;8.096;2023-09-19T05:45:12;21.20;71.80
15983;DHT22;14442;50.196;8.096;2023-09-19T05:47:39;21.20;71.80
15983;DHT22;14442;50.196;8.096;2023-09-19T05:50:09;21.10;71.70
15983;DHT22;14442;50.196;8.096;2023-09-19T05:52:36;21.10;71.70
15983;DHT22;14442;50.196;8.096;2023-09-19T05:55:04;21.10;71.70
15983;DHT22;14442;50.196;8.096;2023-09-19T05:57:32;21.10;71.70
15983;DHT22;14442;50.196;8.096;2023-09-19T05:59:59;21.20;71.80
15983;DHT22;14442;50.196;8.096;2023-09-19T06:02:27;21.20;71.80
15983;DHT22;14442;50.196;8.096;2023-09-19T06:04:55;21.20;71.80
15983;DHT22;14442;50.196;8.096;2023-09-19T06:07:22;21.10;71.70
15983;DHT22;14442;50.196;8.096;2023-09-19T06:09:51;21.20;71.90
15983;DHT22;14442;50.196;8.096;2023-09-19T06:12:19;21.10;71.70
15983;DHT22;14442;50.196;8.096;2023-09-19T06:14:45;21.10;71.70
15983;DHT22;14442;50.196;8.096;2023-09-19T06:17:13;21.10;71.70
15983;DHT22;14442;50.196;8.096;2023-09-19T06:19:41;21.10;71.80
15983;DHT22;14442;50.196;8.096;2023-09-19T06:22:15;21.10;71.80
15983;DHT22;14442;50.196;8.096;2023-09-19T06:24:41;21.20;71.90
15983;DHT22;14442;50.196;8.096;2023-09-19T06:27:08;21.10;71.70
15983;DHT22;14442;50.196;8.096;2023-09-19T06:29:35;21.10;71.80
15983;DHT22;14442;50.196;8.096;2023-09-19T06:32:06;21.10;71.70
15983;DHT22;14442;50.196;8.096;2023-09-19T06:34:33;21.10;71.80
15983;DHT22;14442;50.196;8.096;2023-09-19T06:37:01;21.10;71.80
15983;DHT22;14442;50.196;8.096;2023-09-19T06:39:28;21.10;71.80
15983;DHT22;14442;50.196;8.096;2023-09-19T06:41:56;21.10;71.80
15983;DHT22;14442;50.196;8.096;2023-09-19T06:44:23;21.10;71.80
15983;DHT22;14442;50.196;8.096;2023-09-19T06:46:51;21.10;71.80
15983;DHT22;14442;50.196;8.096;2023-09-19T06:49:17;21.10;71.80
15983;DHT22;14442;50.196;8.096;2023-09-19T06:51:44;21.10;71.80
15983;DHT22;14442;50.196;8.096;2023-09-19T06:54:13;21.10;71.80
15983;DHT22;14442;50.196;8.096;2023-09-19T06:56:39;21.20;71.90
15983;DHT22;14442;50.196;8.096;2023-09-19T06:59:07;21.20;71.90
15983;DHT22;14442;50.196;8.096;2023-09-19T07:01:34;21.10;71.80
15983;DHT22;14442;50.196;8.096;2023-09-19T07:04:03;21.20;71.90
15983;DHT22;14442;50.196;8.096;2023-09-19T07:06:30;21.10;72.50
15983;DHT22;14442;50.196;8.096;2023-09-19T07:08:57;21.10;71.70
15983;DHT22;14442;50.196;8.096;2023-09-19T07:11:25;21.10;71.70
15983;DHT22;14442;50.196;8.096;2023-09-19T07:13:52;21.20;71.80
15983;DHT22;14442;50.196;8.096;2023-09-19T07:16:18;21.20;71.70
15983;DHT22;14442;50.196;8.096;2023-09-19T07:18:55;21.20;71.70
15983;DHT22;14442;50.196;8.096;2023-09-19T07:21:22;21.20;71.70
15983;DHT22;14442;50.196;8.096;2023-09-19T07:23:49;21.20;71.70
15983;DHT22;14442;50.196;8.096;2023-09-19T07:26:16;21.20;72.40
15983;DHT22;14442;50.196;8.096;2023-09-19T07:28:44;21.20;71.90
15983;DHT22;14442;50.196;8.096;2023-09-19T07:31:11;21.30;72.10
15983;DHT22;14442;50.196;8.096;2023-09-19T07:33:40;21.30;71.90
15983;DHT22;14442;50.196;8.096;2023-09-19T07:36:09;21.30;71.80
15983;DHT22;14442;50.196;8.096;2023-09-19T07:38:39;21.30;71.70
15983;DHT22;14442;50.196;8.096;2023-09-19T07:41:05;21.20;71.90
15983;DHT22;14442;50.196;8.096;2023-09-19T07:43:32;21.30;72.10
15983;DHT22;14442;50.196;8.096;2023-09-19T07:46:04;21.30;72.30
15983;DHT22;14442;50.196;8.096;2023-09-19T07:48:32;21.30;72.20
15983;DHT22;14442;50.196;8.096;2023-09-19T07:51:02;21.30;72.00
15983;DHT22;14442;50.196;8.096;2023-09-19T07:53:28;21.20;71.20
15983;DHT22;14442;50.196;8.096;2023-09-19T07:56:02;21.10;69.30
15983;DHT22;14442;50.196;8.096;2023-09-19T07:58:29;21.10;69.70
15983;DHT22;14442;50.196;8.096;2023-09-19T08:00:56;21.10;69.80
15983;DHT22;14442;50.196;8.096;2023-09-19T08:03:24;21.10;70.30
15983;DHT22;14442;50.196;8.096;2023-09-19T08:05:51;21.10;69.90
15983;DHT22;14442;50.196;8.096;2023-09-19T08:08:17;21.10;70.00
15983;DHT22;14442;50.196;8.096;2023-09-19T08:10:45;21.10;70.40
15983;DHT22;14442;50.196;8.096;2023-09-19T08:13:14;21.20;70.50
15983;DHT22;14442;50.196;8.096;2023-09-19T08:15:43;21.20;70.50
15983;DHT22;14442;50.196;8.096;2023-09-19T08:18:10;21.20;70.40
15983;DHT22;14442;50.196;8.096;2023-09-19T08:20:38;21.20;70.30
15983;DHT22;14442;50.196;8.096;2023-09-19T08:23:08;21.30;70.30
15983;DHT22;14442;50.196;8.096;2023-09-19T08:25:34;21.30;70.30
15983;DHT22;14442;50.196;8.096;2023-09-19T08:28:04;21.30;70.30
15983;DHT22;14442;50.196;8.096;2023-09-19T08:30:34;21.30;70.30
15983;DHT22;14442;50.196;8.096;2023-09-19T08:33:01;21.30;70.30
15983;DHT22;14442;50.196;8.096;2023-09-19T08:35:30;21.30;70.40
15983;DHT22;14442;50.196;8.096;2023-09-19T08:37:58;21.30;70.40
15983;DHT22;14442;50.196;8.096;2023-09-19T08:40:30;21.30;70.40
15983;DHT22;14442;50.196;8.096;2023-09-19T08:42:59;21.30;70.40
15983;DHT22;14442;50.196;8.096;2023-09-19T08:45:27;21.30;70.30
15983;DHT22;14442;50.196;8.096;2023-09-19T08:48:00;21.30;70.30
15983;DHT22;14442;50.196;8.096;2023-09-19T08:50:31;21.30;70.30
15983;DHT22;14442;50.196;8.096;2023-09-19T08:53:02;21.30;70.30
15983;DHT22;14442;50.196;8.096;2023-09-19T08:55:35;21.30;70.30
15983;DHT22;14442;50.196;8.096;2023-09-19T08:58:04;21.40;70.40
15983;DHT22;14442;50.196;8.096;2023-09-19T09:00:33;21.50;70.50
15983;DHT22;14442;50.196;8.096;2023-09-19T09:03:03;21.40;70.30
15983;DHT22;14442;50.196;8.096;2023-09-19T09:05:32;21.40;70.20
15983;DHT22;14442;50.196;8.096;2023-09-19T09:08:01;21.40;70.30
15983;DHT22;14442;50.196;8.096;2023-09-19T09:10:28;21.40;70.30
15983;DHT22;14442;50.196;8.096;2023-09-19T09:12:55;21.40;70.30
15983;DHT22;14442;50.196;8.096;2023-09-19T09:15:23;21.40;70.30
15983;DHT22;14442;50.196;8.096;2023-09-19T09:17:51;21.40;70.30
15983;DHT22;14442;50.196;8.096;2023-09-19T09:20:18;21.40;70.30
15983;DHT22;14442;50.196;8.096;2023-09-19T09:22:51;21.40;70.30
15983;DHT22;14442;50.196;8.096;2023-09-19T09:25:20;21.40;70.30
15983;DHT22;14442;50.196;8.096;2023-09-19T09:27:59;21.40;70.30
15983;DHT22;14442;50.196;8.096;2023-09-19T09:30:36;21.40;70.30
15983;DHT22;14442;50.196;8.096;2023-09-19T09:33:10;21.40;70.20
15983;DHT22;14442;50.196;8.096;2023-09-19T09:35:37;21.40;70.30
15983;DHT22;14442;50.196;8.096;2023-09-19T09:38:06;21.40;70.30
15983;DHT22;14442;50.196;8.096;2023-09-19T09:40:48;21.40;70.30
15983;DHT22;14442;50.196;8.096;2023-09-19T09:43:26;21.40;70.20
15983;DHT22;14442;50.196;8.096;2023-09-19T09:46:21;21.40;70.20
15983;DHT22;14442;50.196;8.096;2023-09-19T09:49:05;21.40;70.10
15983;DHT22;14442;50.196;8.096;2023-09-19T09:51:42;21.40;70.10
15983;DHT22;14442;50.196;8.096;2023-09-19T09:54:11;21.40;70.10
15983;DHT22;14442;50.196;8.096;2023-09-19T09:56:54;21.40;70.00
15983;DHT22;14442;50.196;8.096;2023-09-19T09:59:44;21.40;70.00
15983;DHT22;14442;50.196;8.096;2023-09-19T10:02:13;21.40;70.00
15983;DHT22;14442;50.196;8.096;2023-09-19T10:04:40;21.40;70.00
15983;DHT22;14442;50.196;8.096;2023-09-19T10:07:25;21.40;70.00
15983;DHT22;14442;50.196;8.096;2023-09-19T10:09:53;21.40;69.90
15983;DHT22;14442;50.196;8.096;2023-09-19T10:12:27;21.50;70.00
15983;DHT22;14442;50.196;8.096;2023-09-19T10:14:56;21.50;70.00
15983;DHT22;14442;50.196;8.096;2023-09-19T10:17:25;21.50;70.10
15983;DHT22;14442;50.196;8.096;2023-09-19T10:19:55;21.50;70.00
15983;DHT22;14442;50.196;8.096;2023-09-19T10:22:23;21.50;69.90
15983;DHT22;14442;50.196;8.096;2023-09-19T10:24:52;21.50;69.90
15983;DHT22;14442;50.196;8.096;2023-09-19T10:27:20;21.50;69.90
15983;DHT22;14442;50.196;8.096;2023-09-19T10:29:49;21.50;70.00
15983;DHT22;14442;50.196;8.096;2023-09-19T10:32:18;21.50;70.00
15983;DHT22;14442;50.196;8.096;2023-09-19T10:34:46;21.50;70.00
15983;DHT22;14442;50.196;8.096;2023-09-19T10:37:16;21.40;70.00
15983;DHT22;14442;50.196;8.096;2023-09-19T10:39:46;21.40;70.00
15983;DHT22;14442;50.196;8.096;2023-09-19T10:42:19;21.40;69.70
15983;DHT22;14442;50.196;8.096;2023-09-19T10:44:50;21.40;69.70
15983;DHT22;14442;50.196;8.096;2023-09-19T10:47:19;21.40;69.60
15983;DHT22;14442;50.196;8.096;2023-09-19T10:49:46;21.40;69.60
15983;DHT22;14442;50.196;8.096;2023-09-19T10:52:14;21.40;69.40
15983;DHT22;14442;50.196;8.096;2023-09-19T10:54:47;21.40;69.40
15983;DHT22;14442;50.196;8.096;2023-09-19T10:57:19;21.40;69.40
15983;DHT22;14442;50.196;8.096;2023-09-19T11:00:02;21.40;69.30
15983;DHT22;14442;50.196;8.096;2023-09-19T11:03:16;21.40;68.90
15983;DHT22;14442;50.196;8.096;2023-09-19T11:06:00;21.50;68.90
15983;DHT22;14442;50.196;8.096;2023-09-19T11:08:28;21.40;68.60
15983;DHT22;14442;50.196;8.096;2023-09-19T11:10:55;21.50;68.80
15983;DHT22;14442;50.196;8.096;2023-09-19T11:13:25;21.50;68.60
15983;DHT22;14442;50.196;8.096;2023-09-19T11:16:19;21.50;68.30
15983;DHT22;14442;50.196;8.096;2023-09-19T11:18:54;21.50;68.40
15983;DHT22;14442;50.196;8.096;2023-09-19T11:21:51;21.70;68.50
15983;DHT22;14442;50.196;8.096;2023-09-19T11:24:31;22.00;68.10
15983;DHT22;14442;50.196;8.096;2023-09-19T11:27:15;22.40;67.40
15983;DHT22;14442;50.196;8.096;2023-09-19T11:29:43;22.70;66.90
15983;DHT22;14442;50.196;8.096;2023-09-19T11:32:12;22.70;66.70
15983;DHT22;14442;50.196;8.096;2023-09-19T11:34:45;22.80;66.80
15983;DHT22;14442;50.196;8.096;2023-09-19T11:40:37;23.30;66.90
15983;DHT22;14442;50.196;8.096;2023-09-19T11:43:30;23.70;65.20
15983;DHT22;14442;50.196;8.096;2023-09-19T11:46:09;24.00;65.20
15983;DHT22;14442;50.196;8.096;2023-09-19T11:48:38;23.60;65.30
15983;DHT22;14442;50.196;8.096;2023-09-19T11:51:14;23.10;66.50
15983;DHT22;14442;50.196;8.096;2023-09-19T11:53:48;22.70;66.60
15983;DHT22;14442;50.196;8.096;2023-09-19T11:56:16;22.50;66.30
15983;DHT22;14442;50.196;8.096;2023-09-19T11:58:44;22.40;66.00
15983;DHT22;14442;50.196;8.096;2023-09-19T12:01:14;22.40;66.00
15983;DHT22;14442;50.196;8.096;2023-09-19T12:03:50;22.40;66.10
15983;DHT22;14442;50.196;8.096;2023-09-19T12:06:19;22.40;66.40
15983;DHT22;14442;50.196;8.096;2023-09-19T12:08:47;22.30;66.40
15983;DHT22;14442;50.196;8.096;2023-09-19T12:11:16;22.30;66.40
15983;DHT22;14442;50.196;8.096;2023-09-19T12:13:44;22.30;66.80
15983;DHT22;14442;50.196;8.096;2023-09-19T12:16:13;22.30;67.40
15983;DHT22;14442;50.196;8.096;2023-09-19T12:18:41;22.30;68.50
15983;DHT22;14442;50.196;8.096;2023-09-19T12:21:26;22.20;68.60
15983;DHT22;14442;50.196;8.096;2023-09-19T12:23:59;22.20;69.50
15983;DHT22;14442;50.196;8.096;2023-09-19T12:26:26;22.20;70.40
15983;DHT22;14442;50.196;8.096;2023-09-19T12:28:55;22.20;72.20
15983;DHT22;14442;50.196;8.096;2023-09-19T12:31:21;22.40;71.40
15983;DHT22;14442;50.196;8.096;2023-09-19T12:33:53;22.90;71.00
15983;DHT22;14442;50.196;8.096;2023-09-19T12:36:22;23.20;70.70
15983;DHT22;14442;50.196;8.096;2023-09-19T12:38:54;23.20;70.60
15983;DHT22;14442;50.196;8.096;2023-09-19T12:41:21;23.40;71.10
15983;DHT22;14442;50.196;8.096;2023-09-19T12:43:49;23.20;72.50
15983;DHT22;14442;50.196;8.096;2023-09-19T12:46:20;23.00;74.20
15983;DHT22;14442;50.196;8.096;2023-09-19T12:49:18;22.70;75.70
15983;DHT22;14442;50.196;8.096;2023-09-19T12:51:47;22.60;75.80
15983;DHT22;14442;50.196;8.096;2023-09-19T12:54:14;22.50;76.10
15983;DHT22;14442;50.196;8.096;2023-09-19T12:56:42;22.50;76.30
15983;DHT22;14442;50.196;8.096;2023-09-19T12:59:12;22.40;77.10
15983;DHT22;14442;50.196;8.096;2023-09-19T13:01:40;22.40;76.50
15983;DHT22;14442;50.196;8.096;2023-09-19T13:04:13;22.40;76.30
15983;DHT22;14442;50.196;8.096;2023-09-19T13:06:43;22.40;74.70
15983;DHT22;14442;50.196;8.096;2023-09-19T13:09:11;22.30;71.90
15983;DHT22;14442;50.196;8.096;2023-09-19T13:11:40;22.30;71.80
15983;DHT22;14442;50.196;8.096;2023-09-19T13:14:17;22.30;70.50
15983;DHT22;14442;50.196;8.096;2023-09-19T13:16:58;22.30;71.00
15983;DHT22;14442;50.196;8.096;2023-09-19T13:19:36;22.30;70.30
15983;DHT22;14442;50.196;8.096;2023-09-19T13:22:03;22.20;70.50
15983;DHT22;14442;50.196;8.096;2023-09-19T13:24:32;22.30;71.40
15983;DHT22;14442;50.196;8.096;2023-09-19T13:27:00;22.30;72.00
15983;DHT22;14442;50.196;8.096;2023-09-19T13:29:29;22.30;72.30
15983;DHT22;14442;50.196;8.096;2023-09-19T13:31:55;22.30;71.80
15983;DHT22;14442;50.196;8.096;2023-09-19T13:34:22;22.30;71.30
15983;DHT22;14442;50.196;8.096;2023-09-19T13:36:50;22.30;70.90
15983;DHT22;14442;50.196;8.096;2023-09-19T13:39:17;22.30;70.30
15983;DHT22;14442;50.196;8.096;2023-09-19T13:41:46;22.30;69.70
15983;DHT22;14442;50.196;8.096;2023-09-19T13:44:13;22.40;69.40
15983;DHT22;14442;50.196;8.096;2023-09-19T13:46:41;22.40;68.80
15983;DHT22;14442;50.196;8.096;2023-09-19T13:49:11;22.40;68.70
15983;DHT22;14442;50.196;8.096;2023-09-19T13:51:38;22.30;68.40
15983;DHT22;14442;50.196;8.096;2023-09-19T13:54:08;22.30;68.10
15983;DHT22;14442;50.196;8.096;2023-09-19T13:56:37;22.30;67.80
15983;DHT22;14442;50.196;8.096;2023-09-19T13:59:05;22.30;67.60
15983;DHT22;14442;50.196;8.096;2023-09-19T14:01:32;22.40;67.30
15983;DHT22;14442;50.196;8.096;2023-09-19T14:03:59;22.30;66.90
15983;DHT22;14442;50.196;8.096;2023-09-19T14:06:25;22.40;66.70
15983;DHT22;14442;50.196;8.096;2023-09-19T14:08:52;22.40;66.60
15983;DHT22;14442;50.196;8.096;2023-09-19T14:11:19;22.40;66.30
15983;DHT22;14442;50.196;8.096;2023-09-19T14:13:45;22.40;66.30
15983;DHT22;14442;50.196;8.096;2023-09-19T14:16:17;22.40;66.00
15983;DHT22;14442;50.196;8.096;2023-09-19T14:18:45;22.40;65.90
15983;DHT22;14442;50.196;8.096;2023-09-19T14:21:12;22.40;65.70
15983;DHT22;14442;50.196;8.096;2023-09-19T14:23:39;22.40;65.50
15983;DHT22;14442;50.196;8.096;2023-09-19T14:26:07;22.40;65.30
15983;DHT22;14442;50.196;8.096;2023-09-19T14:28:34;22.40;65.20
15983;DHT22;14442;50.196;8.096;2023-09-19T14:31:04;22.50;65.00
15983;DHT22;14442;50.196;8.096;2023-09-19T14:33:35;22.50;65.30
15983;DHT22;14442;50.196;8.096;2023-09-19T14:36:05;22.50;65.10
15983;DHT22;14442;50.196;8.096;2023-09-19T14:38:34;22.60;65.10
15983;DHT22;14442;50.196;8.096;2023-09-19T14:41:01;22.60;65.30
15983;DHT22;14442;50.196;8.096;2023-09-19T14:43:28;22.60;65.50
15983;DHT22;14442;50.196;8.096;2023-09-19T14:45:55;22.60;65.50
15983;DHT22;14442;50.196;8.096;2023-09-19T14:48:22;22.60;65.70
15983;DHT22;14442;50.196;8.096;2023-09-19T14:50:52;22.60;65.80
15983;DHT22;14442;50.196;8.096;2023-09-19T14:53:20;22.60;65.90
15983;DHT22;14442;50.196;8.096;2023-09-19T14:55:47;22.60;66.00
15983;DHT22;14442;50.196;8.096;2023-09-19T14:58:17;22.60;65.90
15983;DHT22;14442;50.196;8.096;2023-09-19T15:00:44;22.60;65.70
15983;DHT22;14442;50.196;8.096;2023-09-19T15:03:11;22.60;65.80
15983;DHT22;14442;50.196;8.096;2023-09-19T15:05:39;22.60;66.00
15983;DHT22;14442;50.196;8.096;2023-09-19T15:08:07;22.60;66.00
15983;DHT22;14442;50.196;8.096;2023-09-19T15:10:33;22.60;66.10
15983;DHT22;14442;50.196;8.096;2023-09-19T15:13:00;22.60;66.10
15983;DHT22;14442;50.196;8.096;2023-09-19T15:15:27;22.60;66.10
15983;DHT22;14442;50.196;8.096;2023-09-19T15:17:53;22.60;66.10
15983;DHT22;14442;50.196;8.096;2023-09-19T15:20:20;22.50;66.20
15983;DHT22;14442;50.196;8.096;2023-09-19T15:22:47;22.50;66.20
15983;DHT22;14442;50.196;8.096;2023-09-19T15:25:15;22.50;66.20
15983;DHT22;14442;50.196;8.096;2023-09-19T15:27:42;22.50;66.20
15983;DHT22;14442;50.196;8.096;2023-09-19T15:30:10;22.50;66.20
15983;DHT22;14442;50.196;8.096;2023-09-19T15:32:37;22.50;66.20
15983;DHT22;14442;50.196;8.096;2023-09-19T15:35:04;22.50;66.30
15983;DHT22;14442;50.196;8.096;2023-09-19T15:37:31;22.50;66.20
15983;DHT22;14442;50.196;8.096;2023-09-19T15:39:57;22.40;66.10
15983;DHT22;14442;50.196;8.096;2023-09-19T15:42:25;22.50;66.10
15983;DHT22;14442;50.196;8.096;2023-09-19T15:44:52;22.50;66.10
15983;DHT22;14442;50.196;8.096;2023-09-19T15:47:20;22.50;65.90
15983;DHT22;14442;50.196;8.096;2023-09-19T15:49:47;22.40;65.80